In Rescue
 
Open Full Screen Window  High Contrast Mode
March 29, 2020 9:06 PM EDT
Weather Information
Wind Direction
  ---
Wind Speed
  00 kt (0 mph)
Wind Gust
  00 kt (0 mph)
Altimeter
29.59 in
Visibility
10 SM
Temperature
06° C
43° F
Dewpoint
05° C
41° F
Humidity
93%
Sky Condition
Overcast @ 8,000 ft
Scattered @ 6,000 ft
VFR

METAR KPZQ 300106Z AUTO 00000KT 10SM SCT060 OVC080 06/05 A2959 RMK AO2 T00560046

FAA Disclaimer: The data displayed is for advisory purposes only and is not to be used for flight planning or operations.